Main page
METAR-TAF:

METAR-TAF

Airports :

Maharana Pratap Airport

Udaipur, India

latitude: 24-37-04N, longitude: 73-53-46E, elevation: 513 m

Current weather observation

The report was made 52 minutes ago, at 05:00 UTC
Wind 5 kt from the South/Southeast
Temperature 29°C
Humidity 79%
Pressure 1008 hPa
Visibility: 6000 m
Scattered clouds at a height of 3000 ft
Broken clouds at a height of 10000 ft

METAR: VAUD 250500Z 15005KT 6000 SCT030 BKN100 29/25 Q1008 NOSIG

Time: 11:22 (05:52 UTC)

Forecast

The report was made 52 minutes ago, at 05:00 UTC
Forecast valid from 25 at 06 UTC to 25 at 15 UTC
Wind 8 kt from the West
Visibility: 5000 m
Broken clouds at a height of 2000 ft
Broken clouds at a height of 10000 ft
haze
Temporary
from 25 at 09 UTC to 25 at 14 UTC
Wind 10 kt from the West
Visibility: 1500 m
Few clouds at a height of 3000 ft, Cumulonimbus.
Overcast at a height of 9000 ft
thunderstorm, rain

TAF: VAUD 250500Z 2506/2515 27008KT 5000 HZ BKN020 BKN100 TEMPO 2509/2514 27010KT 1500 TSRA FEW030CB OVC090

Weather observations and forecasts of more than 4000 airports (METAR and TAF reports).

The available stations are represented by yellow and red dots on the map.

Hover mouse over dot to see the name of the station.

Then click to see weather observations and forecasts.

To change the map : click on the green buttons with a black cross to zoom in, on the green button with a dash to zoom out, or on the green arrows for adjacent maps.


METAR-TAF: